createdAt,value
2023-06-17T00:02:16.648Z,96572.13
2023-06-17T00:04:48.606Z,96583.88
2023-06-17T00:07:20.371Z,96572.41
2023-06-17T00:09:51.955Z,96576.22
2023-06-17T00:12:25.516Z,96570.22
2023-06-17T00:14:58.394Z,96579.75
2023-06-17T00:17:33.564Z,96575.25
2023-06-17T00:20:13.383Z,96578.47
2023-06-17T00:22:45.845Z,96575.88
2023-06-17T00:25:17.530Z,96573.91
2023-06-17T00:27:49.129Z,96580.44
2023-06-17T00:30:20.999Z,96569.47
2023-06-17T00:32:52.973Z,96565.66
2023-06-17T00:35:24.588Z,96560.00
2023-06-17T00:37:56.198Z,96561.44
2023-06-17T00:40:28.142Z,96560.25
2023-06-17T00:43:00.175Z,96562.88
2023-06-17T00:45:39.739Z,96554.34
2023-06-17T00:48:12.363Z,96562.88
2023-06-17T00:50:46.571Z,96560.69
2023-06-17T00:53:18.556Z,96557.63
2023-06-17T00:55:51.011Z,96547.81
2023-06-17T00:58:23.650Z,96564.00
2023-06-17T01:00:55.365Z,96553.13
2023-06-17T01:03:27.088Z,96556.41
2023-06-17T01:06:04.483Z,96547.19
2023-06-17T01:08:45.725Z,96550.88
2023-06-17T01:11:21.355Z,96556.50
2023-06-17T01:13:57.326Z,96557.13
2023-06-17T01:16:33.199Z,96556.06
2023-06-17T01:19:07.049Z,96550.84
2023-06-17T01:21:39.769Z,96556.59
2023-06-17T01:24:14.136Z,96553.25
2023-06-17T01:26:45.746Z,96547.53
2023-06-17T01:29:17.487Z,96549.28
2023-06-17T01:31:50.807Z,96548.34
2023-06-17T01:34:45.470Z,96547.25
2023-06-17T01:37:27.235Z,96539.53
2023-06-17T01:40:01.890Z,96549.59
2023-06-17T01:42:37.765Z,96549.59
2023-06-17T01:45:10.566Z,96552.41
2023-06-17T01:47:43.333Z,96550.94
2023-06-17T01:50:20.281Z,96554.56
2023-06-17T01:52:52.616Z,96546.06
2023-06-17T01:55:24.300Z,96551.53
2023-06-17T01:57:55.998Z,96556.09
2023-06-17T02:00:27.793Z,96554.06
2023-06-17T02:02:59.543Z,96550.56
2023-06-17T02:05:31.187Z,96545.38
2023-06-17T02:08:05.758Z,96547.50
2023-06-17T02:10:37.362Z,96555.97
2023-06-17T02:13:11.718Z,96544.53
2023-06-17T02:15:44.102Z,96543.63
2023-06-17T02:18:15.860Z,96545.78
2023-06-17T02:20:47.817Z,96554.31
2023-06-17T02:23:19.703Z,96543.97
2023-06-17T02:25:52.076Z,96545.66
2023-06-17T02:28:23.720Z,96557.72
2023-06-17T02:30:55.915Z,96548.94
2023-06-17T02:33:27.674Z,96549.72
2023-06-17T02:35:59.263Z,96556.22
2023-06-17T02:38:31.304Z,96545.03
2023-06-17T02:41:02.875Z,96549.88
2023-06-17T02:43:34.522Z,96546.56
2023-06-17T02:46:06.372Z,96543.41
2023-06-17T02:48:38.044Z,96544.13
2023-06-17T02:51:10.568Z,96550.66
2023-06-17T02:53:42.313Z,96550.03
2023-06-17T02:56:13.943Z,96549.16
2023-06-17T02:58:46.863Z,96545.50
2023-06-17T03:01:19.354Z,96545.03
2023-06-17T03:03:56.123Z,96539.28
2023-06-17T03:06:27.895Z,96549.75
2023-06-17T03:08:59.509Z,96541.34
2023-06-17T03:11:31.299Z,96544.25
2023-06-17T03:14:03.960Z,96546.38
2023-06-17T03:16:35.952Z,96551.53
2023-06-17T03:19:08.034Z,96548.81
2023-06-17T03:21:42.185Z,96544.84
2023-06-17T03:24:13.860Z,96549.88
2023-06-17T03:26:46.364Z,96551.84
2023-06-17T03:29:18.043Z,96553.09
2023-06-17T03:31:49.728Z,96556.31
2023-06-17T03:34:21.707Z,96551.84
2023-06-17T03:36:53.799Z,96549.16
2023-06-17T03:39:25.464Z,96554.31
2023-06-17T03:41:57.103Z,96553.38
2023-06-17T03:44:28.745Z,96547.88
2023-06-17T03:47:00.971Z,96549.41
2023-06-17T03:49:32.712Z,96550.78
2023-06-17T03:52:04.793Z,96549.75
2023-06-17T03:54:36.475Z,96546.41
2023-06-17T03:57:08.154Z,96556.31
2023-06-17T03:59:39.815Z,96556.22
2023-06-17T04:02:12.593Z,96562.06
2023-06-17T04:04:44.504Z,96564.13
2023-06-17T04:07:16.252Z,96564.28
2023-06-17T04:09:57.993Z,96566.13
2023-06-17T04:12:38.942Z,96572.97
2023-06-17T04:15:10.719Z,96576.16
2023-06-17T04:17:42.403Z,96574.34
2023-06-17T04:20:14.153Z,96579.91
2023-06-17T04:22:46.025Z,96578.44
2023-06-17T04:25:21.854Z,96575.69
2023-06-17T04:27:54.854Z,96575.06
2023-06-17T04:30:26.650Z,96575.81
2023-06-17T04:33:01.344Z,96572.28
2023-06-17T04:35:33.169Z,96571.50
2023-06-17T04:38:05.492Z,96574.88
2023-06-17T04:40:37.952Z,96575.44
2023-06-17T04:43:11.008Z,96570.72
2023-06-17T04:45:43.032Z,96573.09
2023-06-17T04:48:15.697Z,96579.41
2023-06-17T04:50:48.982Z,96576.47
2023-06-17T04:53:20.567Z,96575.47
2023-06-17T04:55:52.588Z,96582.34
2023-06-17T04:58:24.231Z,96579.81
2023-06-17T05:00:55.831Z,96583.88
2023-06-17T05:03:27.472Z,96586.06
2023-06-17T05:05:59.061Z,96586.91
2023-06-17T05:08:30.683Z,96586.38
2023-06-17T05:11:02.234Z,96586.97
2023-06-17T05:13:33.839Z,96581.88
2023-06-17T05:16:05.871Z,96587.22
2023-06-17T05:18:37.452Z,96591.78
2023-06-17T05:21:09.230Z,96585.28
2023-06-17T05:23:40.846Z,96583.53
2023-06-17T05:26:12.508Z,96586.00
2023-06-17T05:28:44.640Z,96587.69
2023-06-17T05:31:16.464Z,96596.25
2023-06-17T05:33:48.158Z,96594.97
2023-06-17T05:36:19.816Z,96590.59
2023-06-17T05:38:51.964Z,96596.59
2023-06-17T05:41:23.578Z,96591.53
2023-06-17T05:43:55.202Z,96600.72
2023-06-17T05:46:26.830Z,96603.47
2023-06-17T05:48:58.575Z,96595.91
2023-06-17T05:51:30.216Z,96603.22
2023-06-17T05:54:01.891Z,96602.88
2023-06-17T05:56:33.653Z,96603.63
2023-06-17T05:59:05.236Z,96606.31
2023-06-17T06:01:36.875Z,96612.19
2023-06-17T06:04:08.612Z,96598.34
2023-06-17T06:06:40.293Z,96606.72
2023-06-17T06:09:12.188Z,96603.59
2023-06-17T06:11:43.835Z,96612.97
2023-06-17T06:14:18.806Z,96622.59
2023-06-17T06:16:51.184Z,96616.19
2023-06-17T06:19:22.871Z,96619.69
2023-06-17T06:21:54.509Z,96619.56
2023-06-17T06:24:26.117Z,96620.66
2023-06-17T06:26:57.926Z,96620.22
2023-06-17T06:29:29.481Z,96624.63
2023-06-17T06:32:01.892Z,96633.38
2023-06-17T06:34:34.081Z,96625.44
2023-06-17T06:37:06.157Z,96633.13
2023-06-17T06:39:37.729Z,96626.34
2023-06-17T06:42:09.757Z,96625.06
2023-06-17T06:44:41.362Z,96628.44
2023-06-17T06:47:12.971Z,96625.94
2023-06-17T06:49:44.724Z,96632.53
2023-06-17T06:52:16.495Z,96627.81
2023-06-17T06:54:48.226Z,96629.44
2023-06-17T06:57:19.939Z,96630.97
2023-06-17T06:59:52.740Z,96624.13
2023-06-17T07:02:24.469Z,96642.44
2023-06-17T07:04:56.200Z,96630.91
2023-06-17T07:07:27.940Z,96642.72
2023-06-17T07:09:59.890Z,96640.63
2023-06-17T07:12:31.688Z,96645.16
2023-06-17T07:15:03.699Z,96644.28
2023-06-17T07:17:35.309Z,96653.13
2023-06-17T07:20:07.731Z,96643.56
2023-06-17T07:22:39.366Z,96653.66
2023-06-17T07:25:11.085Z,96665.78
2023-06-17T07:27:42.790Z,96660.22
2023-06-17T07:30:14.623Z,96661.63
2023-06-17T07:32:46.372Z,96666.34
2023-06-17T07:35:18.572Z,96671.53
2023-06-17T07:37:53.118Z,96670.94
2023-06-17T07:40:24.728Z,96657.78
2023-06-17T07:42:56.505Z,96660.78
2023-06-17T07:45:28.310Z,96653.66
2023-06-17T07:48:00.265Z,96660.16
2023-06-17T07:50:31.920Z,96660.47
2023-06-17T07:53:03.583Z,96656.81
2023-06-17T07:55:35.439Z,96654.28
2023-06-17T07:58:07.113Z,96655.19
2023-06-17T08:00:38.820Z,96654.34
2023-06-17T08:03:10.795Z,96650.16
2023-06-17T08:05:42.514Z,96650.50
2023-06-17T08:08:14.147Z,96655.69
2023-06-17T08:10:46.029Z,96650.19
2023-06-17T08:13:17.786Z,96651.72
2023-06-17T08:15:51.111Z,96652.03
2023-06-17T08:18:22.852Z,96642.88
2023-06-17T08:20:54.532Z,96650.66
2023-06-17T08:23:26.137Z,96635.28
2023-06-17T08:25:58.046Z,96639.28
2023-06-17T08:28:29.676Z,96638.28
2023-06-17T08:31:01.532Z,96633.66
2023-06-17T08:33:33.797Z,96627.91
2023-06-17T08:36:05.802Z,96621.66
2023-06-17T08:38:37.983Z,96630.03
2023-06-17T08:41:09.570Z,96624.44
2023-06-17T08:43:42.401Z,96626.69
2023-06-17T08:46:15.546Z,96629.03
2023-06-17T08:48:49.834Z,96628.44
2023-06-17T08:51:21.771Z,96612.00
2023-06-17T08:53:53.661Z,96621.53
2023-06-17T08:56:25.480Z,96620.88
2023-06-17T08:58:57.881Z,96611.50
2023-06-17T09:01:30.069Z,96621.47
2023-06-17T09:04:02.581Z,96620.69
2023-06-17T09:06:34.237Z,96616.66
2023-06-17T09:09:06.597Z,96621.84
2023-06-17T09:11:38.278Z,96616.88
2023-06-17T09:14:10.037Z,96621.53
2023-06-17T09:16:41.909Z,96615.56
2023-06-17T09:19:14.874Z,96618.53
2023-06-17T09:21:49.771Z,96612.34
2023-06-17T09:24:31.131Z,96613.84
2023-06-17T09:27:02.972Z,96616.88
2023-06-17T09:29:37.797Z,96612.66
2023-06-17T09:32:09.621Z,96607.69
2023-06-17T09:34:49.266Z,96616.00
2023-06-17T09:37:21.696Z,96607.53
2023-06-17T09:39:53.410Z,96603.41
2023-06-17T09:42:31.456Z,96596.03
2023-06-17T09:45:08.610Z,96600.56
2023-06-17T09:47:40.716Z,96595.16
2023-06-17T09:50:13.183Z,96603.78
2023-06-17T09:52:45.045Z,96591.06
2023-06-17T09:55:16.965Z,96593.13
2023-06-17T09:57:54.786Z,96595.72
2023-06-17T10:00:28.421Z,96595.63
2023-06-17T10:03:00.313Z,96597.13
2023-06-17T10:05:32.072Z,96595.34
2023-06-17T10:08:05.346Z,96592.81
2023-06-17T10:10:37.786Z,96584.97
2023-06-17T10:13:10.810Z,96583.22
2023-06-17T10:15:42.909Z,96578.72
2023-06-17T10:18:16.352Z,96581.16
2023-06-17T10:20:51.916Z,96580.00
2023-06-17T10:23:24.738Z,96570.91
2023-06-17T10:25:56.421Z,96569.84
2023-06-17T10:29:11.641Z,96568.41
2023-06-17T10:31:44.458Z,96562.84
2023-06-17T10:34:21.005Z,96558.44
2023-06-17T10:37:01.959Z,96559.72
2023-06-17T10:39:33.634Z,96557.03
2023-06-17T10:42:14.389Z,96553.84
2023-06-17T10:44:47.127Z,96539.38
2023-06-17T10:47:23.783Z,96544.66
2023-06-17T10:49:55.998Z,96549.09
2023-06-17T10:52:30.359Z,96538.91
2023-06-17T10:55:04.228Z,96541.13
2023-06-17T10:57:37.312Z,96542.25
2023-06-17T11:00:13.524Z,96535.00
2023-06-17T11:02:45.253Z,96529.47
2023-06-17T11:05:17.991Z,96529.75
2023-06-17T11:07:50.436Z,96526.59
2023-06-17T11:10:26.079Z,96527.47
2023-06-17T11:12:58.505Z,96526.00
2023-06-17T11:15:30.230Z,96521.50
2023-06-17T11:18:05.593Z,96520.19
2023-06-17T11:20:37.235Z,96523.66
2023-06-17T11:23:08.831Z,96521.75
2023-06-17T11:25:45.608Z,96529.28
2023-06-17T11:28:17.779Z,96521.09
2023-06-17T11:30:51.090Z,96518.09
2023-06-17T11:33:24.607Z,96520.41
2023-06-17T11:35:56.375Z,96517.59
2023-06-17T11:38:28.250Z,96518.94
2023-06-17T11:41:00.583Z,96515.91
2023-06-17T11:43:32.831Z,96509.97
2023-06-17T11:46:04.811Z,96505.59
2023-06-17T11:48:36.887Z,96499.31
2023-06-17T11:51:08.871Z,96514.34
2023-06-17T11:53:40.630Z,96504.00
2023-06-17T11:56:15.392Z,96496.06
2023-06-17T11:58:47.371Z,96494.88
2023-06-17T12:01:26.023Z,96498.72
2023-06-17T12:03:58.076Z,96485.53
2023-06-17T12:06:30.060Z,96501.09
2023-06-17T12:09:05.378Z,96493.94
2023-06-17T12:11:40.639Z,96498.31
2023-06-17T12:14:13.976Z,96495.84
2023-06-17T12:16:47.992Z,96491.47
2023-06-17T12:19:25.426Z,96486.06
2023-06-17T12:21:56.996Z,96477.19
2023-06-17T12:24:28.772Z,96482.50
2023-06-17T12:27:00.538Z,96484.53
2023-06-17T12:29:32.265Z,96477.75
2023-06-17T12:32:04.561Z,96469.19
2023-06-17T12:34:36.283Z,96478.59
2023-06-17T12:37:08.857Z,96470.38
2023-06-17T12:39:41.274Z,96465.00
2023-06-17T12:42:13.525Z,96471.19
2023-06-17T12:44:45.970Z,96476.78
2023-06-17T12:47:19.551Z,96466.06
2023-06-17T12:49:51.339Z,96461.50
2023-06-17T12:52:23.228Z,96472.06
2023-06-17T12:55:02.488Z,96468.97
2023-06-17T12:57:34.518Z,96452.59
2023-06-17T13:00:07.580Z,96459.06
2023-06-17T13:02:39.381Z,96446.72
2023-06-17T13:05:11.432Z,96449.41
2023-06-17T13:07:43.062Z,96447.28
2023-06-17T13:10:14.618Z,96437.22
2023-06-17T13:12:46.324Z,96446.31
2023-06-17T13:15:18.252Z,96443.41
2023-06-17T13:17:50.392Z,96438.03
2023-06-17T13:20:22.928Z,96442.72
2023-06-17T13:22:55.195Z,96439.06
2023-06-17T13:25:27.577Z,96434.59
2023-06-17T13:27:59.459Z,96437.22
2023-06-17T13:30:31.040Z,96433.69
2023-06-17T13:33:02.863Z,96434.25
2023-06-17T13:35:34.622Z,96434.59
2023-06-17T13:38:06.474Z,96428.97
2023-06-17T13:40:38.100Z,96422.19
2023-06-17T13:43:09.835Z,96414.59
2023-06-17T13:45:41.581Z,96419.53
2023-06-17T13:48:13.618Z,96419.75
2023-06-17T13:50:45.301Z,96416.22
2023-06-17T13:53:17.007Z,96422.28
2023-06-17T13:55:49.801Z,96420.91
2023-06-17T13:58:21.401Z,96411.09
2023-06-17T14:00:53.625Z,96412.72
2023-06-17T14:03:25.544Z,96417.00
2023-06-17T14:05:57.464Z,96405.09
2023-06-17T14:08:29.185Z,96401.81
2023-06-17T14:11:00.885Z,96407.03
2023-06-17T14:13:32.497Z,96403.38
2023-06-17T14:16:04.205Z,96398.31
2023-06-17T14:18:35.863Z,96403.75
2023-06-17T14:21:08.044Z,96393.34
2023-06-17T14:24:15.480Z,96395.56
2023-06-17T14:26:47.151Z,96388.03
2023-06-17T14:29:18.720Z,96382.41
2023-06-17T14:31:50.319Z,96387.50
2023-06-17T14:34:21.913Z,96379.13
2023-06-17T14:36:53.608Z,96380.97
2023-06-17T14:39:25.180Z,96384.88
2023-06-17T14:41:56.952Z,96375.63
2023-06-17T14:44:28.759Z,96381.97
2023-06-17T14:47:00.456Z,96373.94
2023-06-17T14:49:32.046Z,96372.78
2023-06-17T14:52:03.903Z,96369.19
2023-06-17T14:54:35.799Z,96372.34
2023-06-17T14:57:07.780Z,96352.88
2023-06-17T14:59:39.612Z,96364.63
2023-06-17T15:02:25.572Z,96357.25
2023-06-17T15:04:57.448Z,96360.19
2023-06-17T15:07:29.084Z,96362.84
2023-06-17T15:10:01.397Z,96359.94
2023-06-17T15:12:33.448Z,96357.59
2023-06-17T15:15:06.533Z,96365.00
2023-06-17T15:17:38.545Z,96352.63
2023-06-17T15:20:11.311Z,96354.91
2023-06-17T15:22:42.968Z,96370.31
2023-06-17T15:25:14.657Z,96350.56
2023-06-17T15:27:46.455Z,96348.47
2023-06-17T15:30:18.413Z,96350.06
2023-06-17T15:32:52.849Z,96343.59
2023-06-17T15:35:24.944Z,96338.97
2023-06-17T15:37:56.979Z,96333.28
2023-06-17T15:40:28.669Z,96333.41
2023-06-17T15:43:00.340Z,96334.09
2023-06-17T15:45:32.082Z,96337.75
2023-06-17T15:48:04.034Z,96339.69
2023-06-17T15:50:36.212Z,96326.88
2023-06-17T15:53:07.788Z,96325.06
2023-06-17T15:55:39.581Z,96316.38
2023-06-17T15:58:11.194Z,96314.72
2023-06-17T16:00:42.778Z,96311.19
2023-06-17T16:03:26.395Z,96305.88
2023-06-17T16:06:00.004Z,96318.00
2023-06-17T16:08:31.771Z,96308.50
2023-06-17T16:11:04.754Z,96308.31
2023-06-17T16:13:38.610Z,96306.75
2023-06-17T16:16:10.365Z,96308.03
2023-06-17T16:18:42.044Z,96311.88
2023-06-17T16:21:13.730Z,96315.03
2023-06-17T16:23:45.380Z,96315.66
2023-06-17T16:26:16.954Z,96313.78
2023-06-17T16:28:48.635Z,96315.06
2023-06-17T16:31:20.515Z,96316.34
2023-06-17T16:33:52.108Z,96309.84
2023-06-17T16:36:23.817Z,96314.16
2023-06-17T16:38:55.711Z,96304.28
2023-06-17T16:41:27.391Z,96308.34
2023-06-17T16:43:59.031Z,96305.78
2023-06-17T16:46:30.752Z,96305.03
2023-06-17T16:49:02.519Z,96307.19
2023-06-17T16:51:34.271Z,96315.97
2023-06-17T16:54:06.762Z,96313.91
2023-06-17T16:59:12.001Z,96317.88
2023-06-17T17:01:43.815Z,96313.25
2023-06-17T17:04:15.544Z,96308.38
2023-06-17T17:06:47.155Z,96317.72
2023-06-17T17:09:18.735Z,96314.75
2023-06-17T17:11:50.378Z,96319.25
2023-06-17T17:14:23.338Z,96313.63
2023-06-17T17:16:55.072Z,96312.84
2023-06-17T17:19:27.483Z,96317.31
2023-06-17T17:21:59.057Z,96304.91
2023-06-17T17:24:30.900Z,96316.25
2023-06-17T17:27:02.686Z,96309.66
2023-06-17T17:29:35.411Z,96315.75
2023-06-17T17:32:07.443Z,96313.81
2023-06-17T17:34:39.317Z,96327.03
2023-06-17T17:37:10.953Z,96321.00
2023-06-17T17:39:42.593Z,96316.78
2023-06-17T17:42:14.817Z,96320.81
2023-06-17T17:44:46.456Z,96311.69
2023-06-17T17:47:18.182Z,96312.88
2023-06-17T17:49:49.970Z,96316.13
2023-06-17T17:52:21.966Z,96312.16
2023-06-17T17:55:01.802Z,96313.81
2023-06-17T17:57:34.740Z,96316.78
2023-06-17T18:00:09.071Z,96314.94
2023-06-17T18:02:40.890Z,96315.50
2023-06-17T18:05:12.632Z,96319.75
2023-06-17T18:07:44.309Z,96324.00
2023-06-17T18:10:15.965Z,96326.47
2023-06-17T18:12:47.665Z,96319.69
2023-06-17T18:15:19.286Z,96328.59
2023-06-17T18:17:50.986Z,96328.31
2023-06-17T18:20:22.948Z,96324.84
2023-06-17T18:22:54.700Z,96328.53
2023-06-17T18:25:26.329Z,96325.84
2023-06-17T18:27:57.908Z,96324.47
2023-06-17T18:30:29.624Z,96324.38
2023-06-17T18:33:01.734Z,96324.69
2023-06-17T18:35:34.272Z,96329.47
2023-06-17T18:38:07.926Z,96325.38
2023-06-17T18:40:41.024Z,96322.63
2023-06-17T18:43:13.789Z,96324.13
2023-06-17T18:45:45.740Z,96324.75
2023-06-17T18:48:17.415Z,96328.81
2023-06-17T18:50:52.233Z,96324.97
2023-06-17T18:53:23.985Z,96328.88
2023-06-17T18:55:56.138Z,96328.50
2023-06-17T18:58:27.805Z,96332.47
2023-06-17T19:00:59.750Z,96333.84
2023-06-17T19:03:31.977Z,96338.16
2023-06-17T19:06:04.542Z,96344.50
2023-06-17T19:08:36.277Z,96339.03
2023-06-17T19:11:08.237Z,96343.28
2023-06-17T19:13:39.949Z,96344.91
2023-06-17T19:16:11.813Z,96351.31
2023-06-17T19:18:43.618Z,96347.63
2023-06-17T19:21:15.838Z,96347.38
2023-06-17T19:23:47.559Z,96351.72
2023-06-17T19:26:19.214Z,96349.53
2023-06-17T19:28:51.982Z,96349.53
2023-06-17T19:31:25.979Z,96347.03
2023-06-17T19:33:57.609Z,96342.47
2023-06-17T19:36:30.157Z,96352.97
2023-06-17T19:39:02.037Z,96347.47
2023-06-17T19:41:33.813Z,96351.09
2023-06-17T19:44:07.707Z,96351.41
2023-06-17T19:46:40.411Z,96353.13
2023-06-17T19:49:12.046Z,96363.28
2023-06-17T19:51:43.752Z,96358.09
2023-06-17T19:54:16.483Z,96358.38
2023-06-17T19:56:48.613Z,96363.81
2023-06-17T19:59:21.363Z,96365.59
2023-06-17T20:01:53.086Z,96358.38
2023-06-17T20:04:24.807Z,96365.63
2023-06-17T20:06:56.913Z,96361.50
2023-06-17T20:09:31.657Z,96376.72
2023-06-17T20:12:03.631Z,96373.16
2023-06-17T20:14:35.770Z,96373.69
2023-06-17T20:17:08.678Z,96377.88
2023-06-17T20:19:40.547Z,96376.38
2023-06-17T20:22:12.165Z,96379.31
2023-06-17T20:24:43.814Z,96375.03
2023-06-17T20:27:15.587Z,96375.44
2023-06-17T20:29:47.939Z,96377.88
2023-06-17T20:32:20.527Z,96378.31
2023-06-17T20:34:52.479Z,96389.28
2023-06-17T20:37:24.124Z,96380.22
2023-06-17T20:39:56.052Z,96372.00
2023-06-17T20:42:27.890Z,96382.22
2023-06-17T20:44:59.571Z,96383.56
2023-06-17T20:47:31.564Z,96378.91
2023-06-17T20:50:03.940Z,96376.34
2023-06-17T20:52:35.954Z,96378.53
2023-06-17T20:55:08.398Z,96381.72
2023-06-17T20:57:41.022Z,96377.03
2023-06-17T21:00:13.778Z,96378.38
2023-06-17T21:02:45.884Z,96375.72
2023-06-17T21:05:17.707Z,96379.19
2023-06-17T21:07:49.402Z,96387.25
2023-06-17T21:10:21.288Z,96391.34
2023-06-17T21:12:53.273Z,96388.66
2023-06-17T21:15:24.966Z,96389.81
2023-06-17T21:17:56.797Z,96392.94
2023-06-17T21:20:28.426Z,96397.84
2023-06-17T21:23:00.880Z,96397.84
2023-06-17T21:25:32.475Z,96398.84
2023-06-17T21:28:04.284Z,96407.94
2023-06-17T21:30:35.920Z,96412.28
2023-06-17T21:33:07.640Z,96404.34
2023-06-17T21:35:39.339Z,96397.56
2023-06-17T21:38:11.206Z,96407.03
2023-06-17T21:40:42.765Z,96413.31
2023-06-17T21:43:14.494Z,96411.94
2023-06-17T21:45:46.202Z,96407.81
2023-06-17T21:48:18.154Z,96408.94
2023-06-17T21:50:49.831Z,96411.97
2023-06-17T21:53:21.449Z,96412.00
2023-06-17T21:55:53.181Z,96413.88
2023-06-17T21:58:24.810Z,96407.06
2023-06-17T22:00:56.424Z,96406.47
2023-06-17T22:03:28.130Z,96407.03
2023-06-17T22:05:59.938Z,96415.72
2023-06-17T22:08:42.204Z,96402.88
2023-06-17T22:11:15.600Z,96402.88
2023-06-17T22:13:47.351Z,96405.84
2023-06-17T22:16:19.387Z,96407.03
2023-06-17T22:18:51.636Z,96399.78
2023-06-17T22:21:23.841Z,96409.25
2023-06-17T22:23:56.599Z,96405.09
2023-06-17T22:26:28.814Z,96404.72
2023-06-17T22:29:00.468Z,96399.78
2023-06-17T22:31:32.096Z,96402.09
2023-06-17T22:34:03.704Z,96404.00
2023-06-17T22:36:35.721Z,96404.75
2023-06-17T22:39:07.279Z,96409.47
2023-06-17T22:41:39.012Z,96412.69
2023-06-17T22:44:10.700Z,96404.00
2023-06-17T22:46:42.394Z,96416.44
2023-06-17T22:49:14.096Z,96421.34
2023-06-17T22:51:45.740Z,96414.72
2023-06-17T22:54:17.545Z,96413.41
2023-06-17T22:56:49.210Z,96410.19
2023-06-17T22:59:21.226Z,96410.63
2023-06-17T23:01:52.931Z,96411.19
2023-06-17T23:04:24.573Z,96414.22
2023-06-17T23:06:56.136Z,96419.13
2023-06-17T23:09:27.757Z,96417.25
2023-06-17T23:11:59.389Z,96414.03
2023-06-17T23:14:31.180Z,96411.56
2023-06-17T23:17:02.875Z,96416.16
2023-06-17T23:19:34.490Z,96416.53
2023-06-17T23:22:06.339Z,96411.97
2023-06-17T23:24:39.041Z,96406.31
2023-06-17T23:27:10.989Z,96413.50
2023-06-17T23:29:42.616Z,96419.16
2023-06-17T23:32:14.238Z,96419.16
2023-06-17T23:34:45.845Z,96411.97
2023-06-17T23:37:19.116Z,96418.00
2023-06-17T23:39:50.828Z,96422.91
2023-06-17T23:42:22.375Z,96422.50
2023-06-17T23:44:54.093Z,96420.97
2023-06-17T23:47:26.031Z,96416.84
2023-06-17T23:49:57.700Z,96421.94
2023-06-17T23:52:29.259Z,96414.91
2023-06-17T23:55:02.452Z,96415.69
2023-06-17T23:57:34.333Z,96417.59
